sensor_id;sensor_type;location;lat;lon;timestamp;P1;durP1;ratioP1;P2;durP2;ratioP2
57155;SDS011;43023;59.928;10.682;2023-04-19T02:05:16;0.52;;;0.28;;
57155;SDS011;43023;59.928;10.682;2023-04-19T02:07:42;0.30;;;0.30;;
57155;SDS011;43023;59.928;10.682;2023-04-19T02:10:09;2.00;;;0.28;;
57155;SDS011;43023;59.928;10.682;2023-04-19T02:12:35;0.30;;;0.30;;
57155;SDS011;43023;59.928;10.682;2023-04-19T02:15:02;0.30;;;0.30;;
57155;SDS011;43023;59.928;10.682;2023-04-19T02:17:28;2.17;;;0.40;;
57155;SDS011;43023;59.928;10.682;2023-04-19T02:19:54;0.38;;;0.13;;
57155;SDS011;43023;59.928;10.682;2023-04-19T02:22:20;0.30;;;0.30;;
57155;SDS011;43023;59.928;10.682;2023-04-19T02:24:48;0.28;;;0.25;;
57155;SDS011;43023;59.928;10.682;2023-04-19T02:27:14;0.40;;;0.20;;
57155;SDS011;43023;59.928;10.682;2023-04-19T02:29:40;0.68;;;0.30;;
57155;SDS011;43023;59.928;10.682;2023-04-19T02:32:06;2.95;;;0.50;;
57155;SDS011;43023;59.928;10.682;2023-04-19T02:34:33;0.75;;;0.22;;
57155;SDS011;43023;59.928;10.682;2023-04-19T02:36:59;0.55;;;0.13;;
57155;SDS011;43023;59.928;10.682;2023-04-19T02:39:25;0.68;;;0.35;;
57155;SDS011;43023;59.928;10.682;2023-04-19T02:41:51;0.40;;;0.30;;
57155;SDS011;43023;59.928;10.682;2023-04-19T02:44:17;1.25;;;0.40;;
57155;SDS011;43023;59.928;10.682;2023-04-19T02:46:49;0.65;;;0.25;;
57155;SDS011;43023;59.928;10.682;2023-04-19T02:49:16;0.20;;;0.13;;
57155;SDS011;43023;59.928;10.682;2023-04-19T02:51:42;0.10;;;0.10;;
57155;SDS011;43023;59.928;10.682;2023-04-19T02:54:09;0.30;;;0.30;;
57155;SDS011;43023;59.928;10.682;2023-04-19T02:56:35;0.17;;;0.17;;
57155;SDS011;43023;59.928;10.682;2023-04-19T02:59:02;0.10;;;0.10;;
57155;SDS011;43023;59.928;10.682;2023-04-19T03:01:28;0.28;;;0.28;;
57155;SDS011;43023;59.928;10.682;2023-04-19T03:03:54;0.20;;;0.20;;
57155;SDS011;43023;59.928;10.682;2023-04-19T03:06:20;0.57;;;0.30;;
57155;SDS011;43023;59.928;10.682;2023-04-19T03:08:46;0.30;;;0.20;;
57155;SDS011;43023;59.928;10.682;2023-04-19T03:11:14;0.20;;;0.20;;
57155;SDS011;43023;59.928;10.682;2023-04-19T03:13:40;0.57;;;0.20;;
57155;SDS011;43023;59.928;10.682;2023-04-19T03:16:07;3.58;;;0.25;;
57155;SDS011;43023;59.928;10.682;2023-04-19T03:18:33;0.30;;;0.30;;
57155;SDS011;43023;59.928;10.682;2023-04-19T03:20:59;0.57;;;0.30;;
57155;SDS011;43023;59.928;10.682;2023-04-19T03:23:25;2.25;;;0.30;;
57155;SDS011;43023;59.928;10.682;2023-04-19T03:25:51;0.55;;;0.20;;
57155;SDS011;43023;59.928;10.682;2023-04-19T03:28:18;0.17;;;0.17;;
57155;SDS011;43023;59.928;10.682;2023-04-19T03:30:44;1.00;;;0.20;;
57155;SDS011;43023;59.928;10.682;2023-04-19T03:33:10;0.13;;;0.13;;
57155;SDS011;43023;59.928;10.682;2023-04-19T03:35:36;0.30;;;0.20;;
57155;SDS011;43023;59.928;10.682;2023-04-19T03:38:02;0.10;;;0.10;;
57155;SDS011;43023;59.928;10.682;2023-04-19T03:40:36;0.30;;;0.30;;
57155;SDS011;43023;59.928;10.682;2023-04-19T03:43:02;0.52;;;0.30;;
57155;SDS011;43023;59.928;10.682;2023-04-19T03:45:29;0.47;;;0.17;;
57155;SDS011;43023;59.928;10.682;2023-04-19T03:47:55;0.20;;;0.20;;
57155;SDS011;43023;59.928;10.682;2023-04-19T03:50:21;0.10;;;0.10;;
57155;SDS011;43023;59.928;10.682;2023-04-19T03:52:47;0.10;;;0.10;;
57155;SDS011;43023;59.928;10.682;2023-04-19T03:55:13;0.75;;;0.20;;
57155;SDS011;43023;59.928;10.682;2023-04-19T03:57:39;0.65;;;0.30;;
57155;SDS011;43023;59.928;10.682;2023-04-19T04:00:06;0.30;;;0.20;;
57155;SDS011;43023;59.928;10.682;2023-04-19T04:02:32;0.30;;;0.30;;
57155;SDS011;43023;59.928;10.682;2023-04-19T04:04:58;0.22;;;0.15;;
57155;SDS011;43023;59.928;10.682;2023-04-19T04:07:25;0.85;;;0.20;;
57155;SDS011;43023;59.928;10.682;2023-04-19T04:09:51;2.83;;;0.10;;
57155;SDS011;43023;59.928;10.682;2023-04-19T04:12:17;0.10;;;0.10;;
57155;SDS011;43023;59.928;10.682;2023-04-19T04:14:43;0.20;;;0.13;;
57155;SDS011;43023;59.928;10.682;2023-04-19T04:17:09;0.20;;;0.20;;
57155;SDS011;43023;59.928;10.682;2023-04-19T04:19:35;0.63;;;0.15;;
57155;SDS011;43023;59.928;10.682;2023-04-19T04:22:02;0.47;;;0.10;;
57155;SDS011;43023;59.928;10.682;2023-04-19T04:24:28;2.22;;;0.10;;
57155;SDS011;43023;59.928;10.682;2023-04-19T04:26:56;0.60;;;0.30;;
57155;SDS011;43023;59.928;10.682;2023-04-19T04:29:25;1.17;;;0.05;;
57155;SDS011;43023;59.928;10.682;2023-04-19T04:31:51;1.30;;;0.20;;
57155;SDS011;43023;59.928;10.682;2023-04-19T04:34:17;0.88;;;0.10;;
57155;SDS011;43023;59.928;10.682;2023-04-19T04:36:44;0.30;;;0.30;;
57155;SDS011;43023;59.928;10.682;2023-04-19T04:39:11;0.20;;;0.20;;
57155;SDS011;43023;59.928;10.682;2023-04-19T04:41:37;0.30;;;0.17;;
57155;SDS011;43023;59.928;10.682;2023-04-19T04:44:06;1.30;;;0.30;;
57155;SDS011;43023;59.928;10.682;2023-04-19T04:46:33;0.38;;;0.22;;
57155;SDS011;43023;59.928;10.682;2023-04-19T04:48:59;1.48;;;0.20;;
57155;SDS011;43023;59.928;10.682;2023-04-19T04:51:25;0.40;;;0.20;;
57155;SDS011;43023;59.928;10.682;2023-04-19T04:53:52;0.10;;;0.10;;
57155;SDS011;43023;59.928;10.682;2023-04-19T04:56:18;3.90;;;0.38;;
57155;SDS011;43023;59.928;10.682;2023-04-19T04:58:44;0.20;;;0.20;;
57155;SDS011;43023;59.928;10.682;2023-04-19T05:01:10;2.05;;;0.20;;
57155;SDS011;43023;59.928;10.682;2023-04-19T05:03:36;3.90;;;0.60;;
57155;SDS011;43023;59.928;10.682;2023-04-19T05:06:02;1.00;;;0.28;;
57155;SDS011;43023;59.928;10.682;2023-04-19T05:08:28;1.63;;;0.38;;
57155;SDS011;43023;59.928;10.682;2023-04-19T05:10:54;4.28;;;0.30;;
57155;SDS011;43023;59.928;10.682;2023-04-19T05:13:20;0.90;;;0.32;;
57155;SDS011;43023;59.928;10.682;2023-04-19T05:15:46;0.82;;;0.40;;
57155;SDS011;43023;59.928;10.682;2023-04-19T05:18:12;1.08;;;0.38;;
57155;SDS011;43023;59.928;10.682;2023-04-19T05:20:39;0.95;;;0.47;;
57155;SDS011;43023;59.928;10.682;2023-04-19T05:23:05;2.15;;;0.40;;
57155;SDS011;43023;59.928;10.682;2023-04-19T05:25:32;2.47;;;0.30;;
57155;SDS011;43023;59.928;10.682;2023-04-19T05:27:58;3.10;;;0.40;;
57155;SDS011;43023;59.928;10.682;2023-04-19T05:30:24;3.80;;;0.38;;
57155;SDS011;43023;59.928;10.682;2023-04-19T05:32:50;3.72;;;0.50;;
57155;SDS011;43023;59.928;10.682;2023-04-19T05:35:16;5.22;;;0.90;;
57155;SDS011;43023;59.928;10.682;2023-04-19T05:37:43;3.35;;;0.40;;
57155;SDS011;43023;59.928;10.682;2023-04-19T05:40:09;6.20;;;0.43;;
57155;SDS011;43023;59.928;10.682;2023-04-19T05:42:36;3.65;;;0.60;;
57155;SDS011;43023;59.928;10.682;2023-04-19T05:45:03;2.65;;;0.75;;
57155;SDS011;43023;59.928;10.682;2023-04-19T05:47:30;3.78;;;0.85;;
57155;SDS011;43023;59.928;10.682;2023-04-19T05:49:56;3.95;;;0.88;;
57155;SDS011;43023;59.928;10.682;2023-04-19T05:52:22;6.00;;;0.77;;
57155;SDS011;43023;59.928;10.682;2023-04-19T05:54:48;8.63;;;0.50;;
57155;SDS011;43023;59.928;10.682;2023-04-19T05:57:14;5.50;;;0.75;;
57155;SDS011;43023;59.928;10.682;2023-04-19T05:59:40;5.15;;;0.85;;
57155;SDS011;43023;59.928;10.682;2023-04-19T06:02:07;1.35;;;0.60;;
57155;SDS011;43023;59.928;10.682;2023-04-19T06:04:33;8.05;;;0.60;;
57155;SDS011;43023;59.928;10.682;2023-04-19T06:06:59;0.50;;;0.40;;
57155;SDS011;43023;59.928;10.682;2023-04-19T06:09:25;2.15;;;0.70;;
57155;SDS011;43023;59.928;10.682;2023-04-19T06:11:51;2.80;;;0.60;;
57155;SDS011;43023;59.928;10.682;2023-04-19T06:14:18;2.90;;;0.50;;
57155;SDS011;43023;59.928;10.682;2023-04-19T06:16:45;3.40;;;0.52;;
57155;SDS011;43023;59.928;10.682;2023-04-19T06:19:11;4.53;;;0.70;;
57155;SDS011;43023;59.928;10.682;2023-04-19T06:21:37;1.48;;;0.55;;
57155;SDS011;43023;59.928;10.682;2023-04-19T06:24:05;4.28;;;0.77;;
57155;SDS011;43023;59.928;10.682;2023-04-19T06:26:31;4.40;;;0.65;;
57155;SDS011;43023;59.928;10.682;2023-04-19T06:28:57;2.35;;;0.50;;
57155;SDS011;43023;59.928;10.682;2023-04-19T06:31:23;3.47;;;0.65;;
57155;SDS011;43023;59.928;10.682;2023-04-19T06:33:50;3.10;;;0.47;;
57155;SDS011;43023;59.928;10.682;2023-04-19T06:36:16;2.35;;;0.60;;
57155;SDS011;43023;59.928;10.682;2023-04-19T06:38:42;3.40;;;0.47;;
57155;SDS011;43023;59.928;10.682;2023-04-19T06:41:11;1.98;;;0.40;;
57155;SDS011;43023;59.928;10.682;2023-04-19T06:43:37;2.70;;;0.43;;
57155;SDS011;43023;59.928;10.682;2023-04-19T06:46:04;2.13;;;0.63;;
57155;SDS011;43023;59.928;10.682;2023-04-19T06:48:32;2.60;;;0.52;;
57155;SDS011;43023;59.928;10.682;2023-04-19T06:50:58;1.95;;;0.40;;
57155;SDS011;43023;59.928;10.682;2023-04-19T06:53:24;3.83;;;0.30;;
57155;SDS011;43023;59.928;10.682;2023-04-19T06:56:00;1.23;;;0.50;;
57155;SDS011;43023;59.928;10.682;2023-04-19T06:58:27;0.38;;;0.38;;
57155;SDS011;43023;59.928;10.682;2023-04-19T07:00:53;0.77;;;0.30;;
57155;SDS011;43023;59.928;10.682;2023-04-19T07:03:19;1.15;;;0.40;;
57155;SDS011;43023;59.928;10.682;2023-04-19T07:05:45;1.38;;;0.40;;
57155;SDS011;43023;59.928;10.682;2023-04-19T07:08:12;1.70;;;0.63;;
57155;SDS011;43023;59.928;10.682;2023-04-19T07:10:38;5.55;;;0.73;;
57155;SDS011;43023;59.928;10.682;2023-04-19T07:13:04;0.70;;;0.50;;
57155;SDS011;43023;59.928;10.682;2023-04-19T07:15:30;1.55;;;0.40;;
57155;SDS011;43023;59.928;10.682;2023-04-19T07:17:56;1.73;;;0.28;;
57155;SDS011;43023;59.928;10.682;2023-04-19T07:20:22;0.43;;;0.43;;
57155;SDS011;43023;59.928;10.682;2023-04-19T07:22:48;1.60;;;0.60;;
57155;SDS011;43023;59.928;10.682;2023-04-19T07:25:14;0.73;;;0.30;;
57155;SDS011;43023;59.928;10.682;2023-04-19T07:27:40;0.98;;;0.30;;
57155;SDS011;43023;59.928;10.682;2023-04-19T07:30:07;1.00;;;0.40;;
57155;SDS011;43023;59.928;10.682;2023-04-19T07:32:33;0.30;;;0.30;;
57155;SDS011;43023;59.928;10.682;2023-04-19T07:34:59;1.20;;;0.50;;
57155;SDS011;43023;59.928;10.682;2023-04-19T07:37:25;4.25;;;0.50;;
57155;SDS011;43023;59.928;10.682;2023-04-19T07:39:52;3.50;;;0.63;;
57155;SDS011;43023;59.928;10.682;2023-04-19T07:42:18;4.75;;;0.98;;
57155;SDS011;43023;59.928;10.682;2023-04-19T07:44:44;2.10;;;0.50;;
57155;SDS011;43023;59.928;10.682;2023-04-19T07:47:10;0.70;;;0.50;;
57155;SDS011;43023;59.928;10.682;2023-04-19T07:49:36;1.45;;;0.60;;
57155;SDS011;43023;59.928;10.682;2023-04-19T07:52:05;1.88;;;0.40;;
57155;SDS011;43023;59.928;10.682;2023-04-19T07:54:31;1.75;;;0.30;;
57155;SDS011;43023;59.928;10.682;2023-04-19T07:56:58;1.20;;;0.50;;
57155;SDS011;43023;59.928;10.682;2023-04-19T07:59:24;1.25;;;0.28;;
57155;SDS011;43023;59.928;10.682;2023-04-19T08:01:50;0.30;;;0.20;;
57155;SDS011;43023;59.928;10.682;2023-04-19T08:04:16;1.27;;;0.38;;
57155;SDS011;43023;59.928;10.682;2023-04-19T08:06:43;1.20;;;0.22;;
57155;SDS011;43023;59.928;10.682;2023-04-19T08:09:10;0.70;;;0.30;;
57155;SDS011;43023;59.928;10.682;2023-04-19T08:11:36;2.13;;;0.35;;
57155;SDS011;43023;59.928;10.682;2023-04-19T08:14:02;3.30;;;0.50;;
57155;SDS011;43023;59.928;10.682;2023-04-19T08:16:28;0.98;;;0.40;;
57155;SDS011;43023;59.928;10.682;2023-04-19T08:18:54;1.00;;;0.40;;
57155;SDS011;43023;59.928;10.682;2023-04-19T08:21:20;3.45;;;0.30;;
57155;SDS011;43023;59.928;10.682;2023-04-19T08:23:46;0.30;;;0.28;;
57155;SDS011;43023;59.928;10.682;2023-04-19T08:26:12;1.55;;;0.47;;
57155;SDS011;43023;59.928;10.682;2023-04-19T08:28:38;0.95;;;0.30;;
57155;SDS011;43023;59.928;10.682;2023-04-19T08:31:05;2.70;;;0.30;;
57155;SDS011;43023;59.928;10.682;2023-04-19T08:33:31;2.40;;;0.50;;
57155;SDS011;43023;59.928;10.682;2023-04-19T08:35:57;3.65;;;0.43;;
57155;SDS011;43023;59.928;10.682;2023-04-19T08:38:23;0.80;;;0.40;;
57155;SDS011;43023;59.928;10.682;2023-04-19T08:40:53;2.90;;;0.40;;
57155;SDS011;43023;59.928;10.682;2023-04-19T08:43:19;0.73;;;0.20;;
57155;SDS011;43023;59.928;10.682;2023-04-19T08:45:49;1.08;;;0.45;;
57155;SDS011;43023;59.928;10.682;2023-04-19T08:48:16;0.85;;;0.50;;
57155;SDS011;43023;59.928;10.682;2023-04-19T08:50:42;2.28;;;0.40;;
57155;SDS011;43023;59.928;10.682;2023-04-19T08:53:12;0.38;;;0.20;;
57155;SDS011;43023;59.928;10.682;2023-04-19T08:55:40;3.65;;;0.40;;
57155;SDS011;43023;59.928;10.682;2023-04-19T08:58:06;1.17;;;0.43;;
57155;SDS011;43023;59.928;10.682;2023-04-19T09:00:33;1.20;;;0.30;;
57155;SDS011;43023;59.928;10.682;2023-04-19T09:03:00;3.80;;;0.40;;
57155;SDS011;43023;59.928;10.682;2023-04-19T09:05:26;1.27;;;0.43;;
57155;SDS011;43023;59.928;10.682;2023-04-19T09:07:52;0.45;;;0.22;;
57155;SDS011;43023;59.928;10.682;2023-04-19T09:10:18;0.80;;;0.40;;
57155;SDS011;43023;59.928;10.682;2023-04-19T09:13:04;0.98;;;0.30;;
57155;SDS011;43023;59.928;10.682;2023-04-19T09:15:36;0.60;;;0.40;;
57155;SDS011;43023;59.928;10.682;2023-04-19T09:18:04;1.08;;;0.20;;
57155;SDS011;43023;59.928;10.682;2023-04-19T09:20:37;0.90;;;0.43;;
57155;SDS011;43023;59.928;10.682;2023-04-19T09:23:04;0.77;;;0.30;;
57155;SDS011;43023;59.928;10.682;2023-04-19T09:25:30;0.80;;;0.15;;
57155;SDS011;43023;59.928;10.682;2023-04-19T09:28:12;0.47;;;0.20;;
57155;SDS011;43023;59.928;10.682;2023-04-19T09:30:39;0.82;;;0.20;;
57155;SDS011;43023;59.928;10.682;2023-04-19T09:33:05;0.30;;;0.17;;
57155;SDS011;43023;59.928;10.682;2023-04-19T09:35:45;0.30;;;0.17;;
57155;SDS011;43023;59.928;10.682;2023-04-19T09:38:14;0.20;;;0.20;;
57155;SDS011;43023;59.928;10.682;2023-04-19T09:40:41;1.05;;;0.35;;
57155;SDS011;43023;59.928;10.682;2023-04-19T09:43:07;0.28;;;0.28;;
57155;SDS011;43023;59.928;10.682;2023-04-19T09:45:40;0.93;;;0.30;;
57155;SDS011;43023;59.928;10.682;2023-04-19T09:48:07;0.20;;;0.20;;
57155;SDS011;43023;59.928;10.682;2023-04-19T09:50:33;0.57;;;0.30;;
57155;SDS011;43023;59.928;10.682;2023-04-19T09:53:00;2.00;;;0.25;;
57155;SDS011;43023;59.928;10.682;2023-04-19T09:55:27;0.30;;;0.30;;
57155;SDS011;43023;59.928;10.682;2023-04-19T09:57:53;2.05;;;0.22;;
57155;SDS011;43023;59.928;10.682;2023-04-19T10:00:19;0.52;;;0.40;;
57155;SDS011;43023;59.928;10.682;2023-04-19T10:02:50;0.75;;;0.40;;
57155;SDS011;43023;59.928;10.682;2023-04-19T10:05:22;0.50;;;0.32;;
57155;SDS011;43023;59.928;10.682;2023-04-19T10:07:49;0.50;;;0.38;;
57155;SDS011;43023;59.928;10.682;2023-04-19T10:10:16;0.73;;;0.30;;
57155;SDS011;43023;59.928;10.682;2023-04-19T10:12:44;1.17;;;0.40;;
57155;SDS011;43023;59.928;10.682;2023-04-19T10:15:12;3.03;;;0.45;;
57155;SDS011;43023;59.928;10.682;2023-04-19T10:17:40;0.20;;;0.20;;
57155;SDS011;43023;59.928;10.682;2023-04-19T10:20:08;0.40;;;0.20;;
57155;SDS011;43023;59.928;10.682;2023-04-19T10:22:36;0.25;;;0.20;;
57155;SDS011;43023;59.928;10.682;2023-04-19T10:25:26;0.70;;;0.38;;
57155;SDS011;43023;59.928;10.682;2023-04-19T10:27:51;0.20;;;0.20;;
57155;SDS011;43023;59.928;10.682;2023-04-19T10:30:18;0.35;;;0.20;;
57155;SDS011;43023;59.928;10.682;2023-04-19T10:32:46;0.95;;;0.20;;
57155;SDS011;43023;59.928;10.682;2023-04-19T10:35:17;0.20;;;0.20;;
57155;SDS011;43023;59.928;10.682;2023-04-19T10:41:03;0.82;;;0.40;;
57155;SDS011;43023;59.928;10.682;2023-04-19T10:43:35;0.22;;;0.22;;
57155;SDS011;43023;59.928;10.682;2023-04-19T10:46:05;0.93;;;0.30;;
57155;SDS011;43023;59.928;10.682;2023-04-19T10:48:32;3.03;;;0.17;;
57155;SDS011;43023;59.928;10.682;2023-04-19T10:51:15;0.22;;;0.20;;
57155;SDS011;43023;59.928;10.682;2023-04-19T10:56:12;0.38;;;0.13;;
57155;SDS011;43023;59.928;10.682;2023-04-19T11:01:36;0.45;;;0.13;;
57155;SDS011;43023;59.928;10.682;2023-04-19T11:04:10;1.08;;;0.10;;
57155;SDS011;43023;59.928;10.682;2023-04-19T11:06:37;0.45;;;0.20;;
57155;SDS011;43023;59.928;10.682;2023-04-19T11:09:03;0.10;;;0.10;;
57155;SDS011;43023;59.928;10.682;2023-04-19T11:11:34;0.10;;;0.10;;
57155;SDS011;43023;59.928;10.682;2023-04-19T11:14:00;0.40;;;0.20;;
57155;SDS011;43023;59.928;10.682;2023-04-19T11:16:28;0.10;;;0.10;;
57155;SDS011;43023;59.928;10.682;2023-04-19T11:18:54;0.25;;;0.20;;
57155;SDS011;43023;59.928;10.682;2023-04-19T11:21:20;0.30;;;0.20;;
57155;SDS011;43023;59.928;10.682;2023-04-19T11:23:48;0.25;;;0.20;;
57155;SDS011;43023;59.928;10.682;2023-04-19T11:26:14;0.40;;;0.10;;
57155;SDS011;43023;59.928;10.682;2023-04-19T11:28:40;0.70;;;0.10;;
57155;SDS011;43023;59.928;10.682;2023-04-19T11:31:06;0.10;;;0.10;;
57155;SDS011;43023;59.928;10.682;2023-04-19T11:33:33;0.93;;;0.30;;
57155;SDS011;43023;59.928;10.682;2023-04-19T11:35:59;0.13;;;0.13;;
57155;SDS011;43023;59.928;10.682;2023-04-19T11:38:28;0.38;;;0.20;;
57155;SDS011;43023;59.928;10.682;2023-04-19T11:41:01;0.10;;;0.10;;
57155;SDS011;43023;59.928;10.682;2023-04-19T11:43:31;0.00;;;0.00;;
57155;SDS011;43023;59.928;10.682;2023-04-19T11:46:03;0.63;;;0.32;;
57155;SDS011;43023;59.928;10.682;2023-04-19T11:48:30;0.10;;;0.10;;
57155;SDS011;43023;59.928;10.682;2023-04-19T11:50:56;0.05;;;0.05;;
57155;SDS011;43023;59.928;10.682;2023-04-19T11:53:23;0.20;;;0.00;;
57155;SDS011;43023;59.928;10.682;2023-04-19T11:55:51;0.20;;;0.20;;
57155;SDS011;43023;59.928;10.682;2023-04-19T12:00:54;0.82;;;0.20;;
57155;SDS011;43023;59.928;10.682;2023-04-19T12:03:21;0.47;;;0.30;;
57155;SDS011;43023;59.928;10.682;2023-04-19T12:05:54;0.10;;;0.10;;
57155;SDS011;43023;59.928;10.682;2023-04-19T12:08:30;0.10;;;0.10;;
57155;SDS011;43023;59.928;10.682;2023-04-19T12:10:57;0.10;;;0.10;;
57155;SDS011;43023;59.928;10.682;2023-04-19T12:13:24;0.20;;;0.20;;
57155;SDS011;43023;59.928;10.682;2023-04-19T12:15:50;0.20;;;0.05;;
57155;SDS011;43023;59.928;10.682;2023-04-19T12:18:17;1.65;;;0.20;;
57155;SDS011;43023;59.928;10.682;2023-04-19T12:20:47;0.98;;;0.40;;
57155;SDS011;43023;59.928;10.682;2023-04-19T12:23:13;0.10;;;0.10;;
57155;SDS011;43023;59.928;10.682;2023-04-19T12:25:40;0.32;;;0.10;;
57155;SDS011;43023;59.928;10.682;2023-04-19T12:28:06;0.10;;;0.10;;
57155;SDS011;43023;59.928;10.682;2023-04-19T12:30:33;0.95;;;0.17;;
57155;SDS011;43023;59.928;10.682;2023-04-19T12:33:01;2.45;;;0.20;;
57155;SDS011;43023;59.928;10.682;2023-04-19T12:35:27;0.20;;;0.20;;
57155;SDS011;43023;59.928;10.682;2023-04-19T12:37:54;0.40;;;0.10;;
57155;SDS011;43023;59.928;10.682;2023-04-19T12:40:21;0.10;;;0.10;;
57155;SDS011;43023;59.928;10.682;2023-04-19T12:42:47;0.43;;;0.20;;
57155;SDS011;43023;59.928;10.682;2023-04-19T12:45:13;0.10;;;0.10;;
57155;SDS011;43023;59.928;10.682;2023-04-19T12:47:40;2.83;;;0.10;;
57155;SDS011;43023;59.928;10.682;2023-04-19T12:50:07;0.20;;;0.13;;
57155;SDS011;43023;59.928;10.682;2023-04-19T12:52:33;0.35;;;0.20;;
57155;SDS011;43023;59.928;10.682;2023-04-19T12:54:59;0.10;;;0.10;;
57155;SDS011;43023;59.928;10.682;2023-04-19T12:57:25;0.40;;;0.20;;
57155;SDS011;43023;59.928;10.682;2023-04-19T12:59:52;0.20;;;0.10;;
57155;SDS011;43023;59.928;10.682;2023-04-19T13:02:18;0.50;;;0.20;;
57155;SDS011;43023;59.928;10.682;2023-04-19T13:04:44;0.15;;;0.10;;
57155;SDS011;43023;59.928;10.682;2023-04-19T13:07:10;0.17;;;0.00;;
57155;SDS011;43023;59.928;10.682;2023-04-19T13:09:36;0.15;;;0.15;;
57155;SDS011;43023;59.928;10.682;2023-04-19T13:12:03;0.00;;;0.00;;
57155;SDS011;43023;59.928;10.682;2023-04-19T13:14:29;2.42;;;0.20;;
57155;SDS011;43023;59.928;10.682;2023-04-19T13:16:55;3.55;;;0.10;;
57155;SDS011;43023;59.928;10.682;2023-04-19T13:19:21;0.10;;;0.10;;
57155;SDS011;43023;59.928;10.682;2023-04-19T13:21:48;0.20;;;0.10;;
57155;SDS011;43023;59.928;10.682;2023-04-19T13:24:14;0.85;;;0.17;;
57155;SDS011;43023;59.928;10.682;2023-04-19T13:26:40;0.38;;;0.22;;
57155;SDS011;43023;59.928;10.682;2023-04-19T13:29:06;0.05;;;0.05;;
57155;SDS011;43023;59.928;10.682;2023-04-19T13:31:32;0.10;;;0.10;;
57155;SDS011;43023;59.928;10.682;2023-04-19T13:33:58;2.03;;;0.10;;
57155;SDS011;43023;59.928;10.682;2023-04-19T13:36:25;0.15;;;0.10;;
57155;SDS011;43023;59.928;10.682;2023-04-19T13:38:54;3.30;;;0.25;;
57155;SDS011;43023;59.928;10.682;2023-04-19T13:41:20;0.10;;;0.10;;
57155;SDS011;43023;59.928;10.682;2023-04-19T13:43:46;0.15;;;0.10;;
57155;SDS011;43023;59.928;10.682;2023-04-19T13:46:12;0.30;;;0.13;;
57155;SDS011;43023;59.928;10.682;2023-04-19T13:48:38;0.10;;;0.00;;
57155;SDS011;43023;59.928;10.682;2023-04-19T13:51:05;0.20;;;0.20;;
57155;SDS011;43023;59.928;10.682;2023-04-19T13:53:31;0.20;;;0.10;;
57155;SDS011;43023;59.928;10.682;2023-04-19T13:55:58;0.00;;;0.00;;
57155;SDS011;43023;59.928;10.682;2023-04-19T13:58:24;0.10;;;0.10;;
57155;SDS011;43023;59.928;10.682;2023-04-19T14:00:50;0.30;;;0.10;;
57155;SDS011;43023;59.928;10.682;2023-04-19T14:03:17;0.20;;;0.20;;
57155;SDS011;43023;59.928;10.682;2023-04-19T14:05:43;0.00;;;0.00;;
57155;SDS011;43023;59.928;10.682;2023-04-19T14:08:10;0.17;;;0.10;;
57155;SDS011;43023;59.928;10.682;2023-04-19T14:10:36;0.10;;;0.10;;
57155;SDS011;43023;59.928;10.682;2023-04-19T14:13:02;0.10;;;0.10;;
57155;SDS011;43023;59.928;10.682;2023-04-19T14:15:29;0.00;;;0.00;;
57155;SDS011;43023;59.928;10.682;2023-04-19T14:17:55;0.35;;;0.10;;
57155;SDS011;43023;59.928;10.682;2023-04-19T14:20:21;0.10;;;0.10;;
57155;SDS011;43023;59.928;10.682;2023-04-19T14:22:47;0.20;;;0.10;;
57155;SDS011;43023;59.928;10.682;2023-04-19T14:25:13;0.10;;;0.10;;
57155;SDS011;43023;59.928;10.682;2023-04-19T14:27:40;0.20;;;0.10;;
57155;SDS011;43023;59.928;10.682;2023-04-19T14:30:06;0.10;;;0.10;;
57155;SDS011;43023;59.928;10.682;2023-04-19T14:32:34;2.15;;;0.20;;
57155;SDS011;43023;59.928;10.682;2023-04-19T14:35:02;2.88;;;0.43;;
57155;SDS011;43023;59.928;10.682;2023-04-19T14:37:28;0.85;;;0.20;;
57155;SDS011;43023;59.928;10.682;2023-04-19T14:39:54;0.73;;;0.20;;
57155;SDS011;43023;59.928;10.682;2023-04-19T14:42:21;0.22;;;0.20;;
57155;SDS011;43023;59.928;10.682;2023-04-19T14:44:48;10.10;;;0.52;;
57155;SDS011;43023;59.928;10.682;2023-04-19T14:47:14;0.20;;;0.20;;
57155;SDS011;43023;59.928;10.682;2023-04-19T14:49:40;1.98;;;0.30;;
57155;SDS011;43023;59.928;10.682;2023-04-19T14:52:06;0.22;;;0.10;;
57155;SDS011;43023;59.928;10.682;2023-04-19T14:54:32;1.10;;;0.28;;
57155;SDS011;43023;59.928;10.682;2023-04-19T14:56:59;2.50;;;0.30;;
57155;SDS011;43023;59.928;10.682;2023-04-19T14:59:26;1.65;;;0.20;;
57155;SDS011;43023;59.928;10.682;2023-04-19T15:01:52;0.30;;;0.20;;
57155;SDS011;43023;59.928;10.682;2023-04-19T15:04:18;0.17;;;0.13;;
57155;SDS011;43023;59.928;10.682;2023-04-19T15:06:45;4.40;;;0.88;;
57155;SDS011;43023;59.928;10.682;2023-04-19T15:09:11;0.57;;;0.20;;
57155;SDS011;43023;59.928;10.682;2023-04-19T15:11:37;0.20;;;0.05;;
57155;SDS011;43023;59.928;10.682;2023-04-19T15:14:03;1.45;;;0.20;;
57155;SDS011;43023;59.928;10.682;2023-04-19T15:16:29;0.63;;;0.10;;
57155;SDS011;43023;59.928;10.682;2023-04-19T15:18:56;3.53;;;0.30;;
57155;SDS011;43023;59.928;10.682;2023-04-19T15:21:22;1.90;;;0.38;;
57155;SDS011;43023;59.928;10.682;2023-04-19T15:23:48;1.23;;;0.50;;
57155;SDS011;43023;59.928;10.682;2023-04-19T15:26:14;7.90;;;1.00;;
57155;SDS011;43023;59.928;10.682;2023-04-19T15:28:40;10.35;;;2.10;;
57155;SDS011;43023;59.928;10.682;2023-04-19T15:31:06;2.97;;;1.00;;
57155;SDS011;43023;59.928;10.682;2023-04-19T15:33:33;5.70;;;1.60;;
57155;SDS011;43023;59.928;10.682;2023-04-19T15:36:00;4.95;;;2.13;;
57155;SDS011;43023;59.928;10.682;2023-04-19T15:38:27;8.70;;;3.33;;
57155;SDS011;43023;59.928;10.682;2023-04-19T15:40:54;9.32;;;2.50;;
57155;SDS011;43023;59.928;10.682;2023-04-19T15:43:20;7.97;;;2.40;;
57155;SDS011;43023;59.928;10.682;2023-04-19T15:45:47;4.53;;;2.15;;
57155;SDS011;43023;59.928;10.682;2023-04-19T15:48:13;12.32;;;2.13;;
57155;SDS011;43023;59.928;10.682;2023-04-19T15:50:39;8.20;;;2.55;;
57155;SDS011;43023;59.928;10.682;2023-04-19T15:53:06;5.80;;;1.88;;
57155;SDS011;43023;59.928;10.682;2023-04-19T15:55:33;4.63;;;1.88;;
57155;SDS011;43023;59.928;10.682;2023-04-19T15:58:00;9.35;;;1.80;;
57155;SDS011;43023;59.928;10.682;2023-04-19T16:00:26;8.32;;;1.63;;
57155;SDS011;43023;59.928;10.682;2023-04-19T16:02:52;6.18;;;1.33;;
57155;SDS011;43023;59.928;10.682;2023-04-19T16:05:18;5.57;;;1.33;;
57155;SDS011;43023;59.928;10.682;2023-04-19T16:07:45;7.45;;;1.30;;
57155;SDS011;43023;59.928;10.682;2023-04-19T16:10:11;3.55;;;1.50;;
57155;SDS011;43023;59.928;10.682;2023-04-19T16:12:37;4.35;;;1.20;;
57155;SDS011;43023;59.928;10.682;2023-04-19T16:15:04;2.67;;;0.70;;
57155;SDS011;43023;59.928;10.682;2023-04-19T16:17:30;3.35;;;0.65;;
57155;SDS011;43023;59.928;10.682;2023-04-19T16:19:56;2.88;;;0.80;;
57155;SDS011;43023;59.928;10.682;2023-04-19T16:22:23;2.10;;;0.77;;
57155;SDS011;43023;59.928;10.682;2023-04-19T16:24:49;2.83;;;1.00;;
57155;SDS011;43023;59.928;10.682;2023-04-19T16:27:15;3.78;;;0.80;;
57155;SDS011;43023;59.928;10.682;2023-04-19T16:29:41;5.70;;;0.90;;
57155;SDS011;43023;59.928;10.682;2023-04-19T16:32:08;4.40;;;0.95;;
57155;SDS011;43023;59.928;10.682;2023-04-19T16:34:34;5.65;;;1.20;;
57155;SDS011;43023;59.928;10.682;2023-04-19T16:37:01;2.63;;;0.45;;
57155;SDS011;43023;59.928;10.682;2023-04-19T16:39:27;3.33;;;0.45;;
57155;SDS011;43023;59.928;10.682;2023-04-19T16:41:53;3.00;;;0.88;;
57155;SDS011;43023;59.928;10.682;2023-04-19T16:44:19;4.47;;;0.77;;
57155;SDS011;43023;59.928;10.682;2023-04-19T16:46:45;3.63;;;0.50;;